Details From GVAC - Sal Amilcar Cabral Intl
To DIYO - Yamoussoukro
Flight Number -
Tags Multipart Generated
Created
Modified
Stats Distance 1,190 nm / 2,203 km
Max Altitude 0 ft / 0 m
Waypoints 3
Social Downloads 20
Likes 1
Share VATSIM

Download

Looking for another format? Having issues loading an existing format? Contact us
Advertisement - Login to hide

Notes

Generated

Route

GVAC YAM DIYO

ID Type Via Altitude Latitude Longitude Leg Dist Tot Dist Heading (true) Name
O GVAC APT - 0 ft / 0 m 16.73667˚ -22.95800˚ - 0 nm - -
YAM VOR - 0 ft / 0 m 6.88889˚ -5.37886˚ 1189 nm 1189 nm 118° / 121° YAMOUSSOUKRO VOR-DME
O DIYO APT - 0 ft / 0 m 6.89302˚ -5.37475˚ 0 nm 1189 nm 45° / 45° -

Altitude Profile

Advertisement - Login to hide

Weather


0- 5 10 15 20 25 30 35+ Temperature / ° C

Clouds and Precipitation
Forecast for 2017-12-12 18:00 UTC. Updated an hour ago

Ground ~20,000 ft ~40,000 ft Winds

GVAC

Details ICAO GVAC (SID)
Name Sal Amilcar Cabral Intl
Region Cape Verde
Timezone Atlantic/Cape_Verde (UTC-1.0)
Stats Elevation 177 ft / 54 m (AMSL)
Location 16.738208° -22.950500°
Runways 2
Magnetic Variation 9.241° W

METAR

GVAC 121600Z 06012KT 9999 BKN014 SCT200 26/14 Q1014 NOSIG

Decode

TAF

TAF GVAC 121100Z 1212/1318 05014KT 9999 BKN014 TEMPO 1212/1218 SCT014 TEMPO 1312/1318 07016G26KT

Decode

Departure Runways

ID Width Length Bearing (true) Bearing (mag) Surface Threshold Offset Overrun Length
01 148 ft / 45 m 10,826 ft / 3,300 m 359.69° 8.93° Asphalt 885 ft / 270 m 0 ft / 0 m
07 148 ft / 45 m 4,892 ft / 1,491 m 57.69° 66.93° Asphalt 200 ft / 61 m 0 ft / 0 m
19 148 ft / 45 m 10,826 ft / 3,300 m 179.69° 188.93° Asphalt 800 ft / 244 m 0 ft / 0 m
25 148 ft / 45 m 4,892 ft / 1,491 m 237.69° 246.93° Asphalt 200 ft / 61 m 0 ft / 0 m

DIYO

Details ICAO DIYO (ASK)
Name YAMOUSSOUKRO
Region Côte d'Ivoire
Timezone Africa/Abidjan (UTC+0.0)
Stats Elevation 699 ft / 213 m (AMSL)
Location 6.903166° -5.365579°
Runways 1
Magnetic Variation 4.683° W

METAR

DIYO 121600Z 30004KT 2000 HZ NSC 32/19 Q1009 NOSIG

Decode

TAF

TAF DIYO 121100Z 1212/1312 06008KT 2000 HZ NSC TEMPO 1305/1308 0800 FG

Decode

Destination Runways

ID Width Length Bearing (true) Bearing (mag) Surface Threshold Offset Overrun Length
05 148 ft / 45 m 9,946 ft / 3,032 m 41.92° 46.60° Asphalt 0 ft / 0 m 330 ft / 101 m
23 148 ft / 45 m 9,946 ft / 3,032 m 221.92° 226.60° Asphalt 0 ft / 0 m 330 ft / 101 m